Time;durP1;ratioP1;P1;durP2;ratioP2;P2;SDS_P1;SDS_P2;PMS_P1;PMS_P2;Temp;Humidity;BMP_temperature;BMP_pressure;BME280_temperature;BME280_humidity;BME280_pressure;Samples;Min_cycle;Max_cycle;Signal;HPM_P1;HPM_P2
2021/07/10 00:00:59;;;;;;;9.40;4.05;;;;;;;22.66;58.29;100044.19;5030536;28;20040;-65
2021/07/10 00:03:25;;;;;;;11.45;4.13;;;;;;;22.61;58.30;100039.50;5030549;28;20109;-65
2021/07/10 00:05:50;;;;;;;5.10;3.88;;;;;;;22.71;57.54;100037.03;5033078;28;20052;-65
2021/07/10 00:08:15;;;;;;;9.52;4.80;;;;;;;22.83;57.22;100034.38;5031642;28;20026;-65
2021/07/10 00:10:41;;;;;;;7.68;4.53;;;;;;;22.95;56.79;100023.59;5028367;28;20096;-65
2021/07/10 00:13:07;;;;;;;9.85;4.82;;;;;;;22.92;57.14;100024.88;5033829;28;20041;-65
2021/07/10 00:15:32;;;;;;;10.10;4.90;;;;;;;22.77;57.62;100022.59;5034045;28;20036;-65
2021/07/10 00:17:58;;;;;;;10.68;5.40;;;;;;;22.80;57.51;100007.84;5028362;28;20021;-65
2021/07/10 00:20:23;;;;;;;8.85;4.68;;;;;;;22.74;57.95;100016.84;5031089;28;20033;-65
2021/07/10 00:22:49;;;;;;;11.25;4.40;;;;;;;22.82;57.20;100011.13;5026678;28;20342;-65
2021/07/10 00:25:18;;;;;;;6.32;4.28;;;;;;;22.82;56.95;100011.94;5033002;28;20072;-65
2021/07/10 00:27:44;;;;;;;16.13;4.60;;;;;;;22.83;57.40;100018.16;5028322;28;20369;-65
2021/07/10 00:30:11;;;;;;;8.75;4.93;;;;;;;22.83;57.68;100026.28;5031713;28;20327;-65
2021/07/10 00:32:37;;;;;;;7.53;5.03;;;;;;;22.63;58.00;100022.00;5028536;28;20042;-65
2021/07/10 00:35:04;;;;;;;9.05;5.10;;;;;;;22.62;58.56;100011.44;5032719;28;20140;-65
2021/07/10 00:37:30;;;;;;;14.18;5.88;;;;;;;22.82;58.41;100014.66;5027342;28;20045;-65
2021/07/10 00:39:55;;;;;;;10.75;6.38;;;;;;;22.88;58.23;100008.31;5030966;28;20037;-65
2021/07/10 00:42:21;;;;;;;13.05;5.78;;;;;;;22.93;58.10;100007.63;5040973;28;20037;-65
2021/07/10 00:44:48;;;;;;;7.72;6.03;;;;;;;22.88;58.20;100004.78;5039962;28;20029;-65
2021/07/10 00:47:14;;;;;;;12.90;6.68;;;;;;;22.91;58.28;100013.25;5028805;28;20037;-65
2021/07/10 00:49:40;;;;;;;12.07;6.43;;;;;;;22.92;58.31;100014.09;5032759;28;20089;-65
2021/07/10 00:52:06;;;;;;;10.90;5.82;;;;;;;22.88;58.21;100010.19;5031085;28;20042;-65
2021/07/10 00:54:32;;;;;;;12.00;5.63;;;;;;;22.87;58.07;100000.44;5034419;28;20017;-65
2021/07/10 00:56:59;;;;;;;10.98;6.15;;;;;;;22.84;58.06;100006.31;5031191;28;20284;-65
2021/07/10 00:59:27;;;;;;;9.20;5.50;;;;;;;22.80;58.23;100000.56;5031690;28;20057;-65
2021/07/10 01:01:53;;;;;;;13.80;5.75;;;;;;;22.67;58.42;99978.34;5025207;28;20032;-65
2021/07/10 01:04:19;;;;;;;12.35;5.28;;;;;;;22.80;58.44;99999.75;5030520;28;20038;-65
2021/07/10 01:06:44;;;;;;;8.13;5.60;;;;;;;22.80;58.33;99992.47;5039035;28;20096;-65
2021/07/10 01:09:10;;;;;;;8.63;5.43;;;;;;;22.75;58.42;99999.59;5033307;28;20294;-65
2021/07/10 01:11:35;;;;;;;9.85;5.03;;;;;;;22.76;58.52;99993.13;5034386;28;20071;-65
2021/07/10 01:14:02;;;;;;;9.13;5.35;;;;;;;22.83;58.20;99980.38;5029365;28;20068;-65
2021/07/10 01:16:28;;;;;;;10.75;5.57;;;;;;;22.77;58.25;99981.28;5030437;28;20414;-65
2021/07/10 01:18:53;;;;;;;11.77;6.10;;;;;;;22.37;59.32;99981.16;5031646;28;20026;-65
2021/07/10 01:21:19;;;;;;;15.50;5.60;;;;;;;22.23;59.64;99961.69;5037068;28;20025;-65
2021/07/10 01:23:45;;;;;;;12.63;6.35;;;;;;;22.24;59.93;99974.94;5034863;28;20083;-65
2021/07/10 01:26:10;;;;;;;10.15;5.80;;;;;;;22.34;59.15;99977.06;5031596;28;20079;-65
2021/07/10 01:28:36;;;;;;;13.52;6.10;;;;;;;22.51;58.79;99963.69;5034494;28;20684;-65
2021/07/10 01:31:02;;;;;;;12.18;5.75;;;;;;;22.47;58.60;99965.22;5033139;28;20044;-65
2021/07/10 01:33:27;;;;;;;12.85;6.05;;;;;;;22.26;59.20;99955.81;5032954;28;20021;-65
2021/07/10 01:35:53;;;;;;;7.40;5.22;;;;;;;22.34;58.86;99941.97;5044235;28;20240;-65
2021/07/10 01:38:18;;;;;;;12.43;5.55;;;;;;;22.56;58.24;99953.00;5043427;28;20079;-65
2021/07/10 01:40:45;;;;;;;7.97;5.28;;;;;;;22.52;58.36;99949.97;5026915;28;20034;-65
2021/07/10 01:43:11;;;;;;;10.52;5.28;;;;;;;22.48;58.63;99953.38;5033642;28;20048;-64
2021/07/10 01:45:37;;;;;;;10.45;5.45;;;;;;;22.46;58.93;99952.78;5034802;28;20033;-64
2021/07/10 01:48:04;;;;;;;10.40;5.75;;;;;;;22.57;58.89;99951.97;5043176;28;20037;-64
2021/07/10 01:50:30;;;;;;;10.32;5.75;;;;;;;22.61;58.82;99947.72;5039474;28;20215;-64
2021/07/10 01:52:55;;;;;;;17.48;6.00;;;;;;;22.67;58.23;99954.88;5034192;28;20049;-64
2021/07/10 01:55:21;;;;;;;14.80;5.70;;;;;;;22.64;58.40;99955.34;5031018;28;20043;-64
2021/07/10 01:57:49;;;;;;;10.60;5.80;;;;;;;22.69;57.96;99957.34;5029647;28;20307;-64
2021/07/10 02:00:29;;;;;;;14.82;5.80;;;;;;;22.79;57.67;99949.47;5037134;28;20123;-64
2021/07/10 02:02:55;;;;;;;10.95;5.53;;;;;;;22.69;57.90;99947.38;5029707;28;20072;-64
2021/07/10 02:05:24;;;;;;;14.63;6.72;;;;;;;22.51;58.86;99951.03;5041590;28;20026;-64
2021/07/10 02:07:50;;;;;;;14.60;6.40;;;;;;;22.57;58.76;99946.56;5039485;28;20057;-64
2021/07/10 02:10:18;;;;;;;12.82;6.68;;;;;;;22.75;58.32;99949.13;5030496;28;20048;-65
2021/07/10 02:12:46;;;;;;;14.80;6.70;;;;;;;22.77;58.16;99946.19;5034396;28;20339;-64
2021/07/10 02:15:12;;;;;;;14.55;6.85;;;;;;;22.73;58.58;99951.25;5037193;28;20282;-64
2021/07/10 02:17:38;;;;;;;9.13;5.70;;;;;;;22.48;59.74;99943.41;5030784;28;20129;-64
2021/07/10 02:20:07;;;;;;;10.02;5.47;;;;;;;21.91;62.00;99934.97;5037750;28;20330;-64
2021/07/10 02:22:33;;;;;;;8.85;5.53;;;;;;;21.76;62.46;99944.53;5040682;28;20044;-64
2021/07/10 02:24:59;;;;;;;10.07;5.72;;;;;;;21.95;61.56;99946.94;5029943;28;20237;-64
2021/07/10 02:27:24;;;;;;;13.70;6.18;;;;;;;21.63;62.24;99938.28;5033334;28;20357;-64
2021/07/10 02:29:50;;;;;;;10.57;5.85;;;;;;;21.49;62.21;99944.06;5034041;28;20029;-64
2021/07/10 02:32:15;;;;;;;9.10;5.47;;;;;;;21.70;61.42;99937.34;5028413;28;20040;-64
2021/07/10 02:34:40;;;;;;;12.20;5.57;;;;;;;21.93;60.69;99946.34;5029579;28;20039;-64
2021/07/10 02:37:06;;;;;;;12.35;5.25;;;;;;;22.04;60.57;99946.63;5034000;28;20084;-64
2021/07/10 02:39:31;;;;;;;9.50;5.30;;;;;;;21.92;61.21;99947.41;5034870;28;20033;-64
2021/07/10 02:41:57;;;;;;;15.13;5.28;;;;;;;22.02;60.31;99952.22;5042039;28;20037;-64
2021/07/10 02:44:22;;;;;;;11.07;5.90;;;;;;;22.11;60.21;99958.97;5036729;28;20042;-64
2021/07/10 02:46:48;;;;;;;15.32;5.95;;;;;;;22.09;59.69;99954.84;5026688;28;20029;-64
2021/07/10 02:49:13;;;;;;;14.20;5.78;;;;;;;22.23;59.21;99958.97;5039054;28;20033;-64
2021/07/10 02:51:39;;;;;;;11.05;5.72;;;;;;;22.15;60.02;99962.03;5030030;28;20044;-64
2021/07/10 02:54:05;;;;;;;11.00;5.80;;;;;;;22.06;60.07;99963.41;5036574;28;20026;-64
2021/07/10 02:56:31;;;;;;;14.50;5.47;;;;;;;21.90;60.97;99959.47;5029069;28;20239;-64
2021/07/10 02:58:56;;;;;;;16.23;5.75;;;;;;;21.88;61.44;99962.41;5037715;28;20052;-64
2021/07/10 03:01:22;;;;;;;18.15;6.97;;;;;;;21.89;61.69;99963.22;5041792;28;20052;-64
2021/07/10 03:03:48;;;;;;;19.38;6.70;;;;;;;21.86;62.20;99972.59;5032297;28;20230;-64
2021/07/10 03:06:13;;;;;;;14.70;6.47;;;;;;;21.95;61.64;99967.69;5033531;28;20029;-64
2021/07/10 03:08:39;;;;;;;14.85;6.60;;;;;;;21.79;61.88;99952.16;5026904;28;20075;-64
2021/07/10 03:11:05;;;;;;;14.63;7.47;;;;;;;21.77;62.27;99965.84;5035906;28;20043;-64
2021/07/10 03:13:31;;;;;;;16.02;7.60;;;;;;;21.76;62.54;99955.31;5032248;28;20038;-64
2021/07/10 03:15:57;;;;;;;15.45;7.55;;;;;;;21.69;63.02;99952.72;5039130;28;20143;-64
2021/07/10 03:18:22;;;;;;;17.92;7.47;;;;;;;21.67;63.22;99944.84;5029468;28;20132;-64
2021/07/10 03:20:47;;;;;;;17.67;7.47;;;;;;;21.75;63.13;99945.56;5029560;28;20014;-64
2021/07/10 03:23:14;;;;;;;14.93;7.53;;;;;;;21.68;63.18;99937.59;5035543;28;20045;-64
2021/07/10 03:25:41;;;;;;;11.43;7.43;;;;;;;21.82;62.50;99935.50;5033458;28;20307;-64
2021/07/10 03:28:07;;;;;;;14.82;7.70;;;;;;;21.83;62.80;99940.69;5028350;28;20033;-64
2021/07/10 03:30:33;;;;;;;16.55;8.27;;;;;;;21.85;62.81;99944.00;5035824;28;20041;-64
2021/07/10 03:32:59;;;;;;;11.52;7.10;;;;;;;21.94;62.55;99939.09;5030093;28;20071;-64
2021/07/10 03:35:25;;;;;;;11.32;7.82;;;;;;;22.02;62.39;99932.53;5030728;28;20029;-64
2021/07/10 03:37:51;;;;;;;11.85;8.05;;;;;;;22.27;61.84;99941.28;5031569;28;20037;-64
2021/07/10 03:40:20;;;;;;;11.32;7.00;;;;;;;22.35;61.48;99950.91;5030580;28;20097;-64
2021/07/10 03:42:46;;;;;;;11.88;7.38;;;;;;;22.31;61.52;99937.06;5037036;28;20046;-64
2021/07/10 03:45:13;;;;;;;14.43;7.75;;;;;;;22.28;61.97;99934.81;5030289;28;20042;-64
2021/07/10 03:47:39;;;;;;;17.58;7.60;;;;;;;22.44;61.21;99938.69;5032363;28;20036;-64
2021/07/10 03:50:07;;;;;;;17.50;8.38;;;;;;;22.36;61.61;99923.69;5041645;28;20017;-64
2021/07/10 03:52:33;;;;;;;14.40;9.10;;;;;;;22.45;61.44;99916.88;5040884;28;20045;-64
2021/07/10 03:55:00;;;;;;;18.83;9.20;;;;;;;22.39;61.53;99923.22;5034058;28;20029;-64
2021/07/10 03:57:27;;;;;;;18.92;8.98;;;;;;;22.50;61.48;99914.28;5032112;28;20042;-64
2021/07/10 03:59:52;;;;;;;24.40;13.07;;;;;;;22.75;60.51;99913.22;5033850;28;20041;-64
2021/07/10 04:02:17;;;;;;;28.45;15.38;;;;;;;22.88;60.84;99912.97;5038344;28;20030;-64
2021/07/10 04:04:43;;;;;;;25.70;10.98;;;;;;;23.00;59.98;99911.09;5035091;28;20339;-64
2021/07/10 04:07:08;;;;;;;22.55;11.57;;;;;;;23.12;60.16;99911.88;5029198;28;20242;-64
2021/07/10 04:09:34;;;;;;;29.40;10.85;;;;;;;23.21;60.41;99901.53;5030350;28;20032;-64
2021/07/10 04:11:59;;;;;;;24.45;13.25;;;;;;;23.28;60.20;99898.69;5025741;28;20037;-64
2021/07/10 04:14:25;;;;;;;24.80;11.43;;;;;;;23.34;60.17;99895.84;5032108;28;20049;-64
2021/07/10 04:16:51;;;;;;;18.83;10.05;;;;;;;23.43;60.30;99896.25;5030128;28;20331;-64
2021/07/10 04:19:17;;;;;;;19.75;10.18;;;;;;;23.48;60.08;99901.75;5033617;28;20039;-64
2021/07/10 04:21:42;;;;;;;20.27;10.73;;;;;;;23.69;58.83;99903.78;5028172;28;20044;-64
2021/07/10 04:24:08;;;;;;;43.72;25.92;;;;;;;23.42;59.21;99908.94;5027514;28;20038;-64
2021/07/10 04:26:33;;;;;;;20.98;11.25;;;;;;;23.58;58.43;99910.09;5031226;28;20048;-64
2021/07/10 04:28:58;;;;;;;23.65;12.70;;;;;;;23.70;58.24;99908.13;5030733;28;20037;-64
2021/07/10 04:31:24;;;;;;;23.70;9.95;;;;;;;23.93;57.56;99906.34;5030680;28;20043;-64
2021/07/10 04:33:49;;;;;;;24.33;11.90;;;;;;;24.24;56.10;99897.69;5034039;28;20220;-64
2021/07/10 04:36:15;;;;;;;71.75;47.67;;;;;;;24.45;56.05;99910.47;5034062;28;20041;-64
2021/07/10 04:38:40;;;;;;;51.15;31.65;;;;;;;24.57;56.36;99902.25;5032924;28;20022;-64
2021/07/10 04:41:06;;;;;;;30.05;18.05;;;;;;;24.63;56.37;99895.00;5028090;28;20105;-64
2021/07/10 04:43:33;;;;;;;17.73;9.75;;;;;;;24.84;55.70;99913.97;5020935;28;20047;-64
2021/07/10 04:45:59;;;;;;;14.38;8.77;;;;;;;24.98;55.31;99922.63;5021255;28;20042;-64
2021/07/10 04:48:25;;;;;;;29.80;15.07;;;;;;;25.02;54.99;99912.91;5026538;28;20029;-64
2021/07/10 04:50:50;;;;;;;22.65;10.35;;;;;;;24.89;55.61;99915.13;5033195;28;20033;-64
2021/07/10 04:53:15;;;;;;;23.85;12.10;;;;;;;25.21;54.87;99910.69;5036541;28;20037;-64
2021/07/10 04:55:42;;;;;;;14.10;8.80;;;;;;;25.11;55.06;99903.28;5039542;28;20040;-64
2021/07/10 04:58:07;;;;;;;17.60;7.50;;;;;;;25.30;54.25;99911.06;5031427;28;20025;-64
2021/07/10 05:00:33;;;;;;;17.45;7.47;;;;;;;25.57;52.51;99905.66;5035408;28;20057;-64
2021/07/10 05:02:58;;;;;;;19.90;8.63;;;;;;;25.95;51.69;99912.81;5035857;28;20052;-64
2021/07/10 05:05:24;;;;;;;36.17;18.55;;;;;;;26.00;51.65;99918.28;5035148;28;20025;-65
2021/07/10 05:07:49;;;;;;;17.35;10.18;;;;;;;26.21;50.57;99908.41;5038655;28;20040;-64
2021/07/10 05:10:15;;;;;;;18.20;16.27;;;;;;;26.41;49.81;99914.00;5040374;28;20037;-65
2021/07/10 05:12:40;;;;;;;14.75;9.48;;;;;;;26.62;49.50;99912.25;5037395;28;20030;-64
2021/07/10 05:15:06;;;;;;;15.40;8.57;;;;;;;26.78;49.00;99913.94;5029949;28;20035;-64
2021/07/10 05:17:32;;;;;;;17.10;8.20;;;;;;;27.17;48.92;99919.06;5036966;28;20044;-64
2021/07/10 05:19:57;;;;;;;22.80;8.35;;;;;;;27.40;48.44;99924.03;5041486;28;20037;-64
2021/07/10 05:22:23;;;;;;;20.58;10.32;;;;;;;27.51;47.25;99930.31;5033059;28;20048;-65
2021/07/10 05:24:48;;;;;;;13.02;8.30;;;;;;;27.50;46.98;99928.66;5040856;28;20041;-65
2021/07/10 05:27:14;;;;;;;20.85;8.02;;;;;;;27.83;45.19;99930.09;5028033;28;20029;-65
2021/07/10 05:29:39;;;;;;;12.90;7.07;;;;;;;27.76;44.84;99935.81;5029764;28;20032;-64
2021/07/10 05:32:05;;;;;;;9.80;6.72;;;;;;;27.78;44.87;99930.09;5030609;28;20312;-64
2021/07/10 05:34:31;;;;;;;11.93;7.07;;;;;;;28.20;43.57;99930.69;5037162;28;20533;-64
2021/07/10 05:36:56;;;;;;;15.45;5.72;;;;;;;28.57;42.63;99926.84;5036731;28;20335;-64
2021/07/10 05:39:21;;;;;;;13.45;6.95;;;;;;;28.41;42.63;99931.50;5031086;28;20040;-65
2021/07/10 05:41:47;;;;;;;15.23;8.25;;;;;;;28.60;42.59;99935.28;5028497;28;20033;-64
2021/07/10 05:44:12;;;;;;;19.88;11.82;;;;;;;28.85;42.65;99936.31;5036799;28;20327;-64
2021/07/10 05:46:38;;;;;;;11.40;6.70;;;;;;;29.05;42.01;99927.25;5035485;28;20032;-64
2021/07/10 05:49:04;;;;;;;11.82;6.00;;;;;;;29.14;40.39;99925.59;5034046;28;20037;-65
2021/07/10 05:51:30;;;;;;;13.20;7.25;;;;;;;29.09;40.24;99931.06;5034723;28;20354;-65
2021/07/10 05:53:55;;;;;;;10.10;5.72;;;;;;;29.37;39.49;99930.41;5028833;28;20037;-64
2021/07/10 05:56:21;;;;;;;8.40;4.85;;;;;;;29.58;38.80;99931.13;5040611;28;20055;-65
2021/07/10 05:58:46;;;;;;;9.73;5.20;;;;;;;29.61;38.75;99927.00;5034665;28;20068;-65
2021/07/10 06:01:11;;;;;;;12.38;6.90;;;;;;;29.93;38.03;99924.59;5031228;28;20034;-64
2021/07/10 06:03:37;;;;;;;14.60;5.20;;;;;;;30.34;37.35;99925.09;5036302;28;20045;-65
2021/07/10 06:06:02;;;;;;;12.48;4.93;;;;;;;30.16;38.00;99928.50;5034973;28;20033;-65
2021/07/10 06:08:28;;;;;;;10.07;5.13;;;;;;;30.30;37.35;99926.78;5030001;28;20038;-65
2021/07/10 06:10:54;;;;;;;10.70;4.85;;;;;;;30.41;36.77;99922.03;5031064;28;20249;-64
2021/07/10 06:13:19;;;;;;;11.45;5.20;;;;;;;30.74;35.97;99923.06;5030777;28;20211;-65
2021/07/10 06:15:45;;;;;;;9.38;4.45;;;;;;;31.04;35.60;99921.88;5029763;28;20211;-65
2021/07/10 06:18:11;;;;;;;9.57;6.05;;;;;;;30.87;35.68;99919.63;5033468;28;20065;-65
2021/07/10 06:20:39;;;;;;;9.35;4.63;;;;;;;31.01;35.33;99920.53;5029654;28;20026;-65
2021/07/10 06:23:05;;;;;;;9.00;4.78;;;;;;;31.15;35.79;99923.41;5033595;28;20402;-65
2021/07/10 06:25:32;;;;;;;9.75;4.35;;;;;;;31.55;34.52;99930.25;5030231;28;20022;-65
2021/07/10 06:27:59;;;;;;;9.65;4.95;;;;;;;31.46;34.81;99912.88;5029520;28;20071;-65
2021/07/10 06:30:24;;;;;;;11.57;4.78;;;;;;;31.72;34.26;99924.28;5033899;28;20022;-65
2021/07/10 06:32:50;;;;;;;9.27;4.28;;;;;;;31.85;34.24;99919.97;5038390;28;20044;-65
2021/07/10 06:35:16;;;;;;;13.75;4.88;;;;;;;31.41;34.88;99919.25;5036525;28;20025;-65
2021/07/10 06:37:42;;;;;;;8.77;4.72;;;;;;;31.34;35.00;99920.72;5027546;28;20045;-65
2021/07/10 06:40:10;;;;;;;7.43;4.78;;;;;;;31.19;35.15;99912.69;5036465;28;20354;-65
2021/07/10 06:42:36;;;;;;;7.65;4.10;;;;;;;31.72;34.48;99921.56;5037947;28;20041;-65
2021/07/10 06:45:02;;;;;;;12.85;4.20;;;;;;;32.27;33.33;99913.56;5030041;28;20075;-65
2021/07/10 06:47:28;;;;;;;9.35;4.05;;;;;;;32.40;32.21;99915.53;5029401;28;20036;-65
2021/07/10 06:49:53;;;;;;;10.93;4.10;;;;;;;32.77;31.74;99916.44;5033686;28;20037;-65
2021/07/10 06:52:18;;;;;;;9.35;3.78;;;;;;;32.83;31.48;99912.53;5028607;28;20033;-65
2021/07/10 06:54:44;;;;;;;12.57;4.28;;;;;;;32.98;31.40;99909.47;5036116;28;20063;-65
2021/07/10 06:57:09;;;;;;;12.00;4.57;;;;;;;33.48;30.84;99902.09;5031589;28;20235;-65
2021/07/10 06:59:35;;;;;;;6.82;3.83;;;;;;;33.65;30.67;99901.41;5036403;28;20026;-65
2021/07/10 07:02:00;;;;;;;9.98;4.38;;;;;;;33.92;29.40;99901.31;5028674;28;20047;-65
2021/07/10 07:04:25;;;;;;;6.93;3.30;;;;;;;33.97;29.35;99897.63;5036871;28;20029;-65
2021/07/10 07:06:51;;;;;;;9.43;3.40;;;;;;;33.82;29.46;99903.50;5032293;28;20037;-65
2021/07/10 07:09:16;;;;;;;9.80;4.07;;;;;;;33.75;29.62;99905.84;5036221;28;20024;-64
2021/07/10 07:11:42;;;;;;;10.85;4.22;;;;;;;33.78;29.68;99895.06;5033280;28;20025;-65
2021/07/10 07:14:09;;;;;;;9.18;3.78;;;;;;;33.93;29.64;99899.38;5035600;28;20328;-65
2021/07/10 07:16:34;;;;;;;10.25;4.00;;;;;;;33.89;29.70;99898.38;5030584;28;20025;-65
2021/07/10 07:19:00;;;;;;;9.52;3.50;;;;;;;33.95;29.32;99902.63;5032769;28;20333;-65
2021/07/10 07:21:25;;;;;;;5.95;4.07;;;;;;;34.25;28.22;99898.28;5033727;28;20247;-65
2021/07/10 07:23:52;;;;;;;7.15;4.10;;;;;;;34.21;28.10;99902.78;5034928;28;20033;-65
2021/07/10 07:26:18;;;;;;;15.63;5.07;;;;;;;34.13;28.60;99903.56;5031723;28;20044;-65
2021/07/10 07:28:44;;;;;;;11.43;4.00;;;;;;;34.31;28.54;99904.47;5037502;28;20036;-65
2021/07/10 07:31:10;;;;;;;5.85;3.45;;;;;;;34.84;27.99;99896.19;5027592;28;20027;-65
2021/07/10 07:33:36;;;;;;;8.98;3.72;;;;;;;35.24;27.43;99901.59;5029291;28;20210;-65
2021/07/10 07:36:02;;;;;;;13.52;3.67;;;;;;;34.97;28.19;99895.25;5036288;28;20235;-65
2021/07/10 07:38:27;;;;;;;8.75;3.67;;;;;;;35.53;26.84;99896.31;5031744;28;20036;-65
2021/07/10 07:40:53;;;;;;;8.90;3.47;;;;;;;35.26;26.79;99893.81;5028742;28;20026;-65
2021/07/10 07:43:18;;;;;;;15.20;3.70;;;;;;;35.17;25.81;99891.88;5028109;28;20053;-65
2021/07/10 07:45:44;;;;;;;5.47;3.42;;;;;;;35.36;25.49;99894.34;5036625;28;20319;-65
2021/07/10 07:48:09;;;;;;;9.98;4.13;;;;;;;35.66;25.30;99887.06;5031120;28;20129;-65
2021/07/10 07:50:35;;;;;;;8.00;3.78;;;;;;;35.84;25.82;99882.38;5024027;28;20327;-65
2021/07/10 07:53:01;;;;;;;8.75;3.30;;;;;;;35.95;25.32;99882.84;5028190;28;20064;-65
2021/07/10 07:55:27;;;;;;;14.70;3.75;;;;;;;35.90;25.37;99881.06;5032942;28;20050;-65
2021/07/10 07:57:53;;;;;;;6.03;3.40;;;;;;;35.97;24.81;99886.09;5029589;28;20128;-65
2021/07/10 08:00:22;;;;;;;3.90;3.05;;;;;;;35.75;24.98;99876.84;5034778;28;20037;-65
2021/07/10 08:02:48;;;;;;;6.28;3.40;;;;;;;35.75;24.15;99882.38;5033398;28;20370;-65
2021/07/10 08:05:14;;;;;;;13.65;5.18;;;;;;;36.10;24.44;99869.34;5027554;28;20049;-65
2021/07/10 08:07:40;;;;;;;9.10;3.83;;;;;;;36.19;23.58;99874.84;5028972;28;20025;-65
2021/07/10 08:10:12;;;;;;;5.47;3.10;;;;;;;36.54;22.37;99870.06;5031068;28;20030;-65
2021/07/10 08:12:38;;;;;;;7.25;3.63;;;;;;;36.72;22.28;99863.31;5027048;28;20229;-65
2021/07/10 08:15:06;;;;;;;12.70;3.38;;;;;;;36.83;21.79;99868.47;5031224;28;20063;-65
2021/07/10 08:17:31;;;;;;;9.32;3.80;;;;;;;36.85;21.79;99861.47;5030365;28;20038;-65
2021/07/10 08:19:57;;;;;;;6.20;3.00;;;;;;;36.89;21.94;99848.63;5028375;28;20342;-65
2021/07/10 08:22:22;;;;;;;8.55;3.08;;;;;;;37.30;21.76;99864.41;5028253;28;20064;-65
2021/07/10 08:24:48;;;;;;;3.58;2.83;;;;;;;36.95;21.18;99854.75;5022346;28;20097;-65
2021/07/10 08:27:13;;;;;;;5.65;2.80;;;;;;;36.94;20.94;99856.69;5034792;28;20330;-66
2021/07/10 08:29:40;;;;;;;8.82;2.92;;;;;;;37.36;21.28;99851.22;5030405;28;20386;-65
2021/07/10 08:32:06;;;;;;;8.90;3.42;;;;;;;36.88;21.51;99843.44;5035317;28;20061;-66
2021/07/10 08:34:32;;;;;;;7.38;3.20;;;;;;;36.91;21.09;99849.09;5031683;28;20064;-66
2021/07/10 08:36:57;;;;;;;4.55;2.60;;;;;;;35.64;23.02;99852.72;5027564;28;20104;-65
2021/07/10 08:39:23;;;;;;;4.57;2.67;;;;;;;35.79;22.45;99854.97;5028147;28;20045;-65
2021/07/10 08:41:48;;;;;;;2.90;2.63;;;;;;;35.44;23.23;99857.78;5029245;28;20042;-65
2021/07/10 08:44:15;;;;;;;8.93;2.88;;;;;;;35.45;23.45;99850.31;5035935;28;20048;-65
2021/07/10 08:46:40;;;;;;;7.80;2.88;;;;;;;35.04;23.76;99850.75;5036057;28;20410;-65
2021/07/10 08:49:07;;;;;;;4.88;2.90;;;;;;;35.24;23.74;99850.09;5045554;28;20041;-65
2021/07/10 08:51:33;;;;;;;5.43;2.78;;;;;;;35.28;23.56;99845.56;5045290;28;20041;-65
2021/07/10 08:53:58;;;;;;;4.22;3.05;;;;;;;35.64;23.33;99841.72;5045459;28;20057;-65
2021/07/10 08:56:24;;;;;;;6.53;3.03;;;;;;;36.03;22.74;99846.19;5045375;28;20052;-65
2021/07/10 08:58:49;;;;;;;4.68;2.60;;;;;;;35.36;24.48;99847.53;5045746;28;20037;-65
2021/07/10 09:01:15;;;;;;;4.57;2.72;;;;;;;35.31;24.85;99842.16;5045231;28;20045;-65
2021/07/10 09:03:41;;;;;;;5.53;2.47;;;;;;;35.35;23.79;99845.13;5044112;28;20203;-65
2021/07/10 09:06:07;;;;;;;5.60;2.72;;;;;;;35.15;24.52;99841.03;5045365;28;20247;-65
2021/07/10 09:08:32;;;;;;;7.88;2.60;;;;;;;34.97;24.24;99833.91;5043686;28;20073;-65
2021/07/10 09:11:09;;;;;;;4.53;2.72;;;;;;;35.11;24.62;99840.06;5045260;28;20132;-65
2021/07/10 09:13:42;;;;;;;7.30;2.63;;;;;;;35.21;23.82;99842.50;5045400;28;20021;-65
2021/07/10 09:16:26;;;;;;;3.85;2.50;;;;;;;34.65;24.85;99835.91;5044907;28;20052;-65
2021/07/10 09:18:56;;;;;;;7.65;2.67;;;;;;;33.64;28.04;99842.13;5045258;28;20030;-65
2021/07/10 09:21:40;;;;;;;7.22;2.55;;;;;;;33.19;27.36;99836.56;5044046;28;20076;-65
2021/07/10 09:24:17;;;;;;;5.95;2.78;;;;;;;32.74;27.68;99838.34;5044678;28;20053;-65
2021/07/10 09:26:45;;;;;;;7.40;2.72;;;;;;;32.64;28.21;99833.09;5044661;28;20033;-65
2021/07/10 09:29:15;;;;;;;5.63;2.90;;;;;;;33.58;26.84;99840.63;5044749;28;20041;-65
2021/07/10 09:31:55;;;;;;;5.03;2.60;;;;;;;33.74;25.75;99821.84;5043291;28;20239;-65
2021/07/10 09:34:27;;;;;;;7.20;2.92;;;;;;;33.42;27.45;99825.66;5044626;28;20060;-65
2021/07/10 09:36:56;;;;;;;8.43;2.50;;;;;;;33.41;27.07;99827.59;5044684;28;20056;-65
2021/07/10 09:39:30;;;;;;;8.60;2.95;;;;;;;32.71;26.87;99825.25;5041832;28;20030;-65
2021/07/10 09:41:56;;;;;;;;;;;;;;;32.53;27.91;99826.19;5045173;28;20033;-65
2021/07/10 09:44:22;;;;;;;6.60;2.83;;;;;;;32.52;28.28;99824.56;5044292;28;20106;-65
2021/07/10 09:46:47;;;;;;;5.57;2.40;;;;;;;32.94;26.71;99821.50;5047762;28;20037;-65
2021/07/10 09:49:25;;;;;;;8.52;2.65;;;;;;;32.69;26.42;99814.59;5054903;28;20029;-65
2021/07/10 09:52:09;;;;;;;4.95;2.63;;;;;;;32.99;25.99;99810.41;5044619;28;20028;-65
2021/07/10 09:54:38;;;;;;;;;;;;;;;33.29;26.54;99810.81;5044700;28;20033;-65
2021/07/10 09:57:07;;;;;;;7.50;3.30;;;;;;;33.58;26.36;99796.72;5044374;28;20190;-65
2021/07/10 09:59:41;;;;;;;5.68;2.92;;;;;;;33.81;26.68;99800.25;5044072;28;20030;-65
2021/07/10 10:02:12;;;;;;;4.90;3.13;;;;;;;33.90;26.49;99795.63;5044086;28;20033;-65
2021/07/10 10:04:38;;;;;;;6.25;2.58;;;;;;;34.01;25.73;99787.94;5043848;28;20034;-65
2021/07/10 10:07:10;;;;;;;5.78;2.92;;;;;;;34.00;25.89;99791.81;5044506;28;20032;-65
2021/07/10 10:09:35;;;;;;;7.90;3.13;;;;;;;34.00;26.13;99789.88;5043694;28;20037;-65
2021/07/10 10:12:05;;;;;;;4.75;2.65;;;;;;;33.99;25.64;99788.25;5044146;28;20201;-65
2021/07/10 10:14:33;;;;;;;6.68;2.65;;;;;;;33.92;26.58;99790.63;5043744;28;20048;-65
2021/07/10 10:16:59;;;;;;;9.68;2.88;;;;;;;33.29;27.27;99781.50;5043974;28;20107;-65
2021/07/10 10:19:28;;;;;;;6.20;2.92;;;;;;;33.20;27.50;99786.06;5043652;28;20037;-65
2021/07/10 10:21:57;;;;;;;5.70;3.30;;;;;;;33.09;27.52;99781.13;5043836;28;20036;-65
2021/07/10 10:24:24;;;;;;;4.47;2.75;;;;;;;32.76;28.01;99780.47;5043527;28;20045;-65
2021/07/10 10:26:51;;;;;;;7.43;2.85;;;;;;;32.11;27.93;99775.19;5030304;28;20017;-64
2021/07/10 10:29:18;;;;;;;6.20;3.30;;;;;;;32.04;30.28;99779.13;5043605;28;20080;-65
2021/07/10 10:31:45;;;;;;;7.75;2.85;;;;;;;31.92;30.54;99781.56;5043465;28;20377;-65
2021/07/10 10:34:11;;;;;;;6.95;3.25;;;;;;;32.26;29.26;99775.75;5041874;28;20037;-65
2021/07/10 10:36:39;;;;;;;5.15;2.80;;;;;;;32.60;28.92;99771.78;5037502;28;20064;-65
2021/07/10 10:39:11;;;;;;;5.20;3.10;;;;;;;31.75;30.08;99773.94;5033265;28;20029;-65
2021/07/10 10:41:45;;;;;;;3.92;3.00;;;;;;;31.74;30.52;99772.31;5032680;28;20038;-65
2021/07/10 10:44:11;;;;;;;5.93;3.10;;;;;;;31.68;31.37;99773.47;5036016;28;20037;-65
2021/07/10 10:46:55;;;;;;;5.53;3.20;;;;;;;31.44;32.03;99779.09;5032641;28;20235;-65
2021/07/10 10:49:50;;;;;;;;;;;;;;;31.46;31.05;99778.78;5024390;28;20109;-65
2021/07/10 10:52:33;;;;;;;4.60;3.33;;;;;;;31.34;31.77;99781.19;5035392;28;20146;-65
2021/07/10 10:55:28;;;;;;;4.40;2.80;;;;;;;30.75;33.04;99775.16;5042960;28;20044;-65
2021/07/10 10:58:18;;;;;;;6.85;3.20;;;;;;;30.52;32.79;99777.91;5038494;28;20045;-65
2021/07/10 11:00:56;;;;;;;6.43;3.53;;;;;;;30.57;32.20;99783.31;5043357;28;20040;-65
2021/07/10 11:03:22;;;;;;;4.82;3.20;;;;;;;30.89;31.34;99767.03;5042521;28;20041;-65
2021/07/10 11:05:57;;;;;;;8.35;2.90;;;;;;;31.23;30.80;99757.84;5043153;28;20033;-65
2021/07/10 11:08:29;;;;;;;3.70;2.97;;;;;;;31.25;33.38;99764.63;5043163;28;20061;-65
2021/07/10 11:10:57;;;;;;;6.53;2.92;;;;;;;31.40;31.28;99761.66;5029629;28;20017;-65
2021/07/10 11:13:28;;;;;;;7.28;3.40;;;;;;;31.58;31.37;99753.69;5043179;28;20061;-65
2021/07/10 11:16:17;;;;;;;8.80;3.20;;;;;;;31.71;29.91;99758.41;5042698;28;20029;-65
2021/07/10 11:18:49;;;;;;;9.07;3.35;;;;;;;31.48;31.98;99757.41;5042814;28;20051;-65
2021/07/10 11:21:38;;;;;;;8.68;3.15;;;;;;;31.60;30.64;99746.81;5042669;28;20045;-65
2021/07/10 11:24:25;;;;;;;5.78;3.10;;;;;;;31.46;29.96;99750.63;5042185;28;20060;-65
2021/07/10 11:26:56;;;;;;;8.10;3.10;;;;;;;31.29;30.73;99741.03;5042893;28;20266;-65
2021/07/10 11:29:39;;;;;;;5.15;2.67;;;;;;;31.34;31.26;99748.34;5042459;28;20029;-65